sensor_id;sensor_type;location;lat;lon;timestamp;pressure;altitude;pressure_sealevel;temperature;humidity
11605;BME280;5858;43.076;25.626;2022-08-16T00:02:21;98618.50;;;22.18;89.65
11605;BME280;5858;43.076;25.626;2022-08-16T00:04:48;98624.22;;;22.16;89.68
11605;BME280;5858;43.076;25.626;2022-08-16T00:07:15;98618.50;;;22.13;89.60
11605;BME280;5858;43.076;25.626;2022-08-16T00:09:44;98623.97;;;22.03;90.15
11605;BME280;5858;43.076;25.626;2022-08-16T00:12:11;98467.16;;;20.90;90.14
11605;BME280;5858;43.076;25.626;2022-08-16T00:14:38;98559.97;;;21.64;89.48
11605;BME280;5858;43.076;25.626;2022-08-16T00:17:05;98553.72;;;21.54;89.44
11605;BME280;5858;43.076;25.626;2022-08-16T00:19:34;98489.75;;;20.95;90.01
11605;BME280;5858;43.076;25.626;2022-08-16T00:22:01;98559.47;;;21.37;90.53
11605;BME280;5858;43.076;25.626;2022-08-16T00:24:29;98541.16;;;21.22;90.47
11605;BME280;5858;43.076;25.626;2022-08-16T00:27:00;98458.16;;;20.74;91.00
11605;BME280;5858;43.076;25.626;2022-08-16T00:29:28;98557.75;;;21.21;91.27
11605;BME280;5858;43.076;25.626;2022-08-16T00:31:56;98616.06;;;21.71;91.12
11605;BME280;5858;43.076;25.626;2022-08-16T00:34:24;98532.19;;;21.12;91.38
11605;BME280;5858;43.076;25.626;2022-08-16T00:36:54;98622.59;;;21.59;91.43
11605;BME280;5858;43.076;25.626;2022-08-16T00:39:21;98582.50;;;21.09;92.85
11605;BME280;5858;43.076;25.626;2022-08-16T00:41:51;98570.78;;;20.93;93.45
11605;BME280;5858;43.076;25.626;2022-08-16T00:44:26;98462.59;;;20.07;95.01
11605;BME280;5858;43.076;25.626;2022-08-16T00:46:56;98460.19;;;20.21;94.29
11605;BME280;5858;43.076;25.626;2022-08-16T00:49:26;98565.28;;;20.78;94.99
11605;BME280;5858;43.076;25.626;2022-08-16T00:51:54;98627.19;;;21.28;94.60
11605;BME280;5858;43.076;25.626;2022-08-16T00:54:22;98458.91;;;20.39;93.08
11605;BME280;5858;43.076;25.626;2022-08-16T00:56:50;98543.53;;;20.73;93.78
11605;BME280;5858;43.076;25.626;2022-08-16T00:59:25;98529.91;;;20.63;94.07
11605;BME280;5858;43.076;25.626;2022-08-16T01:01:55;98668.06;;;21.39;93.80
11605;BME280;5858;43.076;25.626;2022-08-16T01:04:23;98595.03;;;21.10;93.31
11605;BME280;5858;43.076;25.626;2022-08-16T01:06:51;98535.66;;;20.71;92.97
11605;BME280;5858;43.076;25.626;2022-08-16T01:09:19;98614.94;;;21.26;93.26
11605;BME280;5858;43.076;25.626;2022-08-16T01:11:46;98654.19;;;21.65;92.22
11605;BME280;5858;43.076;25.626;2022-08-16T01:14:20;98530.28;;;20.92;91.85
11605;BME280;5858;43.076;25.626;2022-08-16T01:16:51;98554.47;;;20.98;91.92
11605;BME280;5858;43.076;25.626;2022-08-16T01:19:26;98486.69;;;20.56;91.82
11605;BME280;5858;43.076;25.626;2022-08-16T01:21:56;98540.06;;;20.88;92.25
11605;BME280;5858;43.076;25.626;2022-08-16T01:24:32;98584.69;;;21.12;92.93
11605;BME280;5858;43.076;25.626;2022-08-16T01:27:04;98665.88;;;21.35;93.08
11605;BME280;5858;43.076;25.626;2022-08-16T01:29:39;98554.13;;;20.64;94.20
11605;BME280;5858;43.076;25.626;2022-08-16T01:32:09;98580.78;;;20.78;94.42
11605;BME280;5858;43.076;25.626;2022-08-16T01:34:36;98618.09;;;20.82;94.87
11605;BME280;5858;43.076;25.626;2022-08-16T01:37:09;98546.28;;;20.21;95.54
11605;BME280;5858;43.076;25.626;2022-08-16T01:39:38;98586.63;;;20.39;96.09
11605;BME280;5858;43.076;25.626;2022-08-16T01:42:08;98667.63;;;20.94;95.60
11605;BME280;5858;43.076;25.626;2022-08-16T01:44:38;98506.50;;;19.89;95.62
11605;BME280;5858;43.076;25.626;2022-08-16T01:47:06;98580.03;;;20.30;96.19
11605;BME280;5858;43.076;25.626;2022-08-16T01:49:35;98680.13;;;20.90;95.97
11605;BME280;5858;43.076;25.626;2022-08-16T01:52:06;98629.19;;;20.75;95.86
11605;BME280;5858;43.076;25.626;2022-08-16T01:54:42;98485.00;;;19.83;95.43
11605;BME280;5858;43.076;25.626;2022-08-16T01:57:09;98638.50;;;20.85;95.86
11605;BME280;5858;43.076;25.626;2022-08-16T01:59:41;98652.97;;;21.11;94.78
11605;BME280;5858;43.076;25.626;2022-08-16T02:02:13;98538.16;;;20.21;96.24
11605;BME280;5858;43.076;25.626;2022-08-16T02:04:43;98537.84;;;20.17;95.83
11605;BME280;5858;43.076;25.626;2022-08-16T02:07:14;98645.06;;;20.94;96.04
11605;BME280;5858;43.076;25.626;2022-08-16T02:09:45;98624.56;;;20.71;95.45
11605;BME280;5858;43.076;25.626;2022-08-16T02:12:16;98578.28;;;20.56;95.78
11605;BME280;5858;43.076;25.626;2022-08-16T02:14:45;98625.63;;;20.70;95.60
11605;BME280;5858;43.076;25.626;2022-08-16T02:17:12;98597.09;;;20.78;95.14
11605;BME280;5858;43.076;25.626;2022-08-16T02:19:41;98612.88;;;20.81;95.07
11605;BME280;5858;43.076;25.626;2022-08-16T02:22:11;98614.84;;;20.85;95.12
11605;BME280;5858;43.076;25.626;2022-08-16T02:24:40;98495.94;;;19.93;95.22
11605;BME280;5858;43.076;25.626;2022-08-16T02:27:09;98548.16;;;20.10;96.69
11605;BME280;5858;43.076;25.626;2022-08-16T02:29:36;98608.00;;;20.30;98.53
11605;BME280;5858;43.076;25.626;2022-08-16T02:32:05;98496.50;;;19.53;98.31
11605;BME280;5858;43.076;25.626;2022-08-16T02:34:33;98573.88;;;19.97;98.38
11605;BME280;5858;43.076;25.626;2022-08-16T02:37:00;98640.03;;;20.65;97.64
11605;BME280;5858;43.076;25.626;2022-08-16T02:39:27;98624.72;;;20.44;96.96
11605;BME280;5858;43.076;25.626;2022-08-16T02:42:05;98566.91;;;20.11;96.83
11605;BME280;5858;43.076;25.626;2022-08-16T02:44:45;98481.38;;;19.67;96.21
11605;BME280;5858;43.076;25.626;2022-08-16T02:47:15;98658.34;;;20.85;95.81
11605;BME280;5858;43.076;25.626;2022-08-16T02:49:42;98664.53;;;20.75;96.40
11605;BME280;5858;43.076;25.626;2022-08-16T02:52:12;98503.19;;;19.82;95.92
11605;BME280;5858;43.076;25.626;2022-08-16T02:54:42;98575.91;;;20.22;95.21
11605;BME280;5858;43.076;25.626;2022-08-16T02:57:09;98642.19;;;20.63;95.76
11605;BME280;5858;43.076;25.626;2022-08-16T02:59:39;98636.97;;;20.47;96.41
11605;BME280;5858;43.076;25.626;2022-08-16T03:02:14;98535.72;;;19.77;96.30
11605;BME280;5858;43.076;25.626;2022-08-16T03:04:41;98656.78;;;20.42;96.81
11605;BME280;5858;43.076;25.626;2022-08-16T03:07:11;98653.38;;;20.30;96.82
11605;BME280;5858;43.076;25.626;2022-08-16T03:09:40;98581.88;;;19.77;97.29
11605;BME280;5858;43.076;25.626;2022-08-16T03:12:10;98625.72;;;19.91;98.36
11605;BME280;5858;43.076;25.626;2022-08-16T03:14:41;98660.84;;;20.07;98.81
11605;BME280;5858;43.076;25.626;2022-08-16T03:17:13;98549.44;;;19.28;99.27
11605;BME280;5858;43.076;25.626;2022-08-16T03:19:40;98707.00;;;20.02;99.88
11605;BME280;5858;43.076;25.626;2022-08-16T03:22:08;98617.97;;;19.45;100.00
11605;BME280;5858;43.076;25.626;2022-08-16T03:24:40;98650.81;;;19.76;99.59
11605;BME280;5858;43.076;25.626;2022-08-16T03:27:10;98531.88;;;19.04;99.26
11605;BME280;5858;43.076;25.626;2022-08-16T03:29:40;98511.81;;;19.05;97.81
11605;BME280;5858;43.076;25.626;2022-08-16T03:32:07;98628.72;;;19.94;97.15
11605;BME280;5858;43.076;25.626;2022-08-16T03:34:36;98520.38;;;19.24;98.08
11605;BME280;5858;43.076;25.626;2022-08-16T03:37:03;98648.19;;;19.86;99.33
11605;BME280;5858;43.076;25.626;2022-08-16T03:39:30;98517.25;;;19.05;98.98
11605;BME280;5858;43.076;25.626;2022-08-16T03:41:57;98644.50;;;19.97;97.79
11605;BME280;5858;43.076;25.626;2022-08-16T03:44:24;98622.25;;;20.00;96.95
11605;BME280;5858;43.076;25.626;2022-08-16T03:46:52;98625.31;;;20.14;95.99
11605;BME280;5858;43.076;25.626;2022-08-16T03:49:20;98520.84;;;19.47;95.78
11605;BME280;5858;43.076;25.626;2022-08-16T03:51:52;98639.53;;;20.31;95.45
11605;BME280;5858;43.076;25.626;2022-08-16T03:54:19;98675.91;;;20.62;94.08
11605;BME280;5858;43.076;25.626;2022-08-16T03:56:49;98586.78;;;20.22;93.75
11605;BME280;5858;43.076;25.626;2022-08-16T03:59:19;98548.34;;;19.93;93.52
11605;BME280;5858;43.076;25.626;2022-08-16T04:01:47;98543.78;;;20.04;93.79
11605;BME280;5858;43.076;25.626;2022-08-16T04:04:14;98703.56;;;21.06;93.14
11605;BME280;5858;43.076;25.626;2022-08-16T04:06:45;98625.66;;;20.80;92.26
11605;BME280;5858;43.076;25.626;2022-08-16T04:09:15;98685.22;;;21.39;91.36
11605;BME280;5858;43.076;25.626;2022-08-16T04:11:43;98565.06;;;20.85;90.76
11605;BME280;5858;43.076;25.626;2022-08-16T04:14:17;98520.47;;;21.01;88.33
11605;BME280;5858;43.076;25.626;2022-08-16T04:20:15;98626.53;;;22.69;83.07
11605;BME280;5858;43.076;25.626;2022-08-16T04:23:13;98545.84;;;22.62;79.89
11605;BME280;5858;43.076;25.626;2022-08-16T04:25:50;98604.09;;;23.36;78.18
11605;BME280;5858;43.076;25.626;2022-08-16T04:28:17;98686.38;;;24.03;77.66
11605;BME280;5858;43.076;25.626;2022-08-16T04:30:44;98696.84;;;23.96;77.29
11605;BME280;5858;43.076;25.626;2022-08-16T04:33:11;98656.41;;;23.59;78.06
11605;BME280;5858;43.076;25.626;2022-08-16T04:35:38;98636.06;;;23.36;77.74
11605;BME280;5858;43.076;25.626;2022-08-16T04:38:05;98688.75;;;23.80;78.55
11605;BME280;5858;43.076;25.626;2022-08-16T04:40:32;98633.59;;;23.34;77.99
11605;BME280;5858;43.076;25.626;2022-08-16T04:43:00;98638.38;;;23.58;77.26
11605;BME280;5858;43.076;25.626;2022-08-16T04:45:28;98614.31;;;23.20;76.85
11605;BME280;5858;43.076;25.626;2022-08-16T04:47:55;98681.22;;;23.67;77.44
11605;BME280;5858;43.076;25.626;2022-08-16T04:50:24;98663.19;;;23.61;76.18
11605;BME280;5858;43.076;25.626;2022-08-16T04:52:52;98599.78;;;23.69;75.87
11605;BME280;5858;43.076;25.626;2022-08-16T04:55:22;98599.56;;;24.47;73.04
11605;BME280;5858;43.076;25.626;2022-08-16T04:57:51;98696.78;;;25.54;71.05
11605;BME280;5858;43.076;25.626;2022-08-16T05:00:22;98631.63;;;25.14;69.57
11605;BME280;5858;43.076;25.626;2022-08-16T05:02:50;98670.16;;;25.36;69.77
11605;BME280;5858;43.076;25.626;2022-08-16T05:05:18;98561.03;;;24.68;69.54
11605;BME280;5858;43.076;25.626;2022-08-16T05:07:47;98609.22;;;25.06;69.84
11605;BME280;5858;43.076;25.626;2022-08-16T05:10:14;98653.88;;;25.26;70.15
11605;BME280;5858;43.076;25.626;2022-08-16T05:12:42;98622.28;;;25.15;69.86
11605;BME280;5858;43.076;25.626;2022-08-16T05:15:09;98699.84;;;25.71;69.85
11605;BME280;5858;43.076;25.626;2022-08-16T05:17:38;98570.66;;;24.84;68.80
11605;BME280;5858;43.076;25.626;2022-08-16T05:20:07;98685.75;;;25.59;69.04
11605;BME280;5858;43.076;25.626;2022-08-16T05:22:37;98673.16;;;25.58;68.60
11605;BME280;5858;43.076;25.626;2022-08-16T05:25:05;98690.75;;;25.90;67.59
11605;BME280;5858;43.076;25.626;2022-08-16T05:27:32;98640.34;;;25.72;67.55
11605;BME280;5858;43.076;25.626;2022-08-16T05:29:59;98605.66;;;25.81;66.54
11605;BME280;5858;43.076;25.626;2022-08-16T05:32:26;98690.47;;;26.84;65.30
11605;BME280;5858;43.076;25.626;2022-08-16T05:34:58;98680.03;;;27.13;63.52
11605;BME280;5858;43.076;25.626;2022-08-16T05:37:25;98579.94;;;26.78;62.39
11605;BME280;5858;43.076;25.626;2022-08-16T05:39:52;98621.28;;;27.23;60.78
11605;BME280;5858;43.076;25.626;2022-08-16T05:42:19;98654.13;;;27.78;60.30
11605;BME280;5858;43.076;25.626;2022-08-16T05:44:47;98632.66;;;27.88;58.85
11605;BME280;5858;43.076;25.626;2022-08-16T05:47:14;98658.81;;;28.53;57.23
11605;BME280;5858;43.076;25.626;2022-08-16T05:49:41;98659.47;;;28.90;55.96
11605;BME280;5858;43.076;25.626;2022-08-16T05:52:11;98627.09;;;29.12;53.99
11605;BME280;5858;43.076;25.626;2022-08-16T05:54:38;98636.53;;;29.37;52.37
11605;BME280;5858;43.076;25.626;2022-08-16T05:57:05;98654.56;;;29.43;52.50
11605;BME280;5858;43.076;25.626;2022-08-16T05:59:32;98628.06;;;29.08;52.89
11605;BME280;5858;43.076;25.626;2022-08-16T06:01:59;98612.81;;;28.93;53.01
11605;BME280;5858;43.076;25.626;2022-08-16T06:04:26;98684.91;;;29.61;52.40
11605;BME280;5858;43.076;25.626;2022-08-16T06:06:53;98645.31;;;29.57;51.02
11605;BME280;5858;43.076;25.626;2022-08-16T06:09:24;98669.47;;;29.68;50.96
11605;BME280;5858;43.076;25.626;2022-08-16T06:11:51;98686.03;;;30.12;50.19
11605;BME280;5858;43.076;25.626;2022-08-16T06:14:18;98650.31;;;29.98;50.69
11605;BME280;5858;43.076;25.626;2022-08-16T06:16:46;98699.41;;;30.65;49.32
11605;BME280;5858;43.076;25.626;2022-08-16T06:19:13;98674.38;;;30.99;47.52
11605;BME280;5858;43.076;25.626;2022-08-16T06:21:39;98639.16;;;31.26;45.53
11605;BME280;5858;43.076;25.626;2022-08-16T06:24:06;98689.19;;;31.54;45.05
11605;BME280;5858;43.076;25.626;2022-08-16T06:26:35;98668.50;;;31.81;45.23
11605;BME280;5858;43.076;25.626;2022-08-16T06:29:02;98684.75;;;32.03;45.26
11605;BME280;5858;43.076;25.626;2022-08-16T06:31:29;98665.75;;;31.81;44.24
11605;BME280;5858;43.076;25.626;2022-08-16T06:33:56;98692.63;;;32.13;43.54
11605;BME280;5858;43.076;25.626;2022-08-16T06:36:23;98653.81;;;32.01;43.50
11605;BME280;5858;43.076;25.626;2022-08-16T06:38:51;98685.94;;;32.60;42.45
11605;BME280;5858;43.076;25.626;2022-08-16T06:41:17;98675.16;;;32.79;43.17
11605;BME280;5858;43.076;25.626;2022-08-16T06:43:46;98692.34;;;33.09;40.93
11605;BME280;5858;43.076;25.626;2022-08-16T06:46:22;98697.44;;;33.43;42.34
11605;BME280;5858;43.076;25.626;2022-08-16T06:48:49;98688.75;;;33.57;39.95
11605;BME280;5858;43.076;25.626;2022-08-16T06:51:16;98621.66;;;33.15;41.36
11605;BME280;5858;43.076;25.626;2022-08-16T06:53:43;98579.97;;;32.63;39.85
11605;BME280;5858;43.076;25.626;2022-08-16T06:56:13;98548.47;;;32.55;40.77
11605;BME280;5858;43.076;25.626;2022-08-16T06:58:40;98633.09;;;32.77;38.87
11605;BME280;5858;43.076;25.626;2022-08-16T07:01:16;98551.56;;;32.17;41.07
11605;BME280;5858;43.076;25.626;2022-08-16T07:03:45;98610.09;;;32.52;40.29
11605;BME280;5858;43.076;25.626;2022-08-16T07:06:13;98685.91;;;33.05;41.45
11605;BME280;5858;43.076;25.626;2022-08-16T07:08:52;98675.59;;;32.69;41.01
11605;BME280;5858;43.076;25.626;2022-08-16T07:11:21;98682.28;;;32.68;41.21
11605;BME280;5858;43.076;25.626;2022-08-16T07:13:51;98620.09;;;31.87;43.30
11605;BME280;5858;43.076;25.626;2022-08-16T07:16:20;98538.25;;;31.32;43.04
11605;BME280;5858;43.076;25.626;2022-08-16T07:18:47;98596.66;;;31.72;42.91
11605;BME280;5858;43.076;25.626;2022-08-16T07:21:14;98618.41;;;31.94;42.03
11605;BME280;5858;43.076;25.626;2022-08-16T07:23:41;98572.25;;;31.86;40.77
11605;BME280;5858;43.076;25.626;2022-08-16T07:26:13;98616.34;;;32.37;41.27
11605;BME280;5858;43.076;25.626;2022-08-16T07:28:41;98650.50;;;32.41;39.55
11605;BME280;5858;43.076;25.626;2022-08-16T07:31:08;98558.53;;;31.78;41.85
11605;BME280;5858;43.076;25.626;2022-08-16T07:33:37;98674.94;;;32.27;39.69
11605;BME280;5858;43.076;25.626;2022-08-16T07:36:05;98672.78;;;32.44;38.82
11605;BME280;5858;43.076;25.626;2022-08-16T07:38:33;98658.47;;;32.42;38.62
11605;BME280;5858;43.076;25.626;2022-08-16T07:41:01;98623.56;;;32.17;38.97
11605;BME280;5858;43.076;25.626;2022-08-16T07:43:28;98637.91;;;32.31;38.84
11605;BME280;5858;43.076;25.626;2022-08-16T07:45:55;98618.75;;;32.26;37.66
11605;BME280;5858;43.076;25.626;2022-08-16T07:48:24;98626.81;;;31.98;37.66
11605;BME280;5858;43.076;25.626;2022-08-16T07:50:53;98677.25;;;32.24;38.60
11605;BME280;5858;43.076;25.626;2022-08-16T07:53:20;98660.94;;;32.23;37.65
11605;BME280;5858;43.076;25.626;2022-08-16T07:55:47;98649.69;;;32.07;38.20
11605;BME280;5858;43.076;25.626;2022-08-16T07:58:17;98628.38;;;31.75;38.65
11605;BME280;5858;43.076;25.626;2022-08-16T08:00:46;98595.53;;;31.64;37.81
11605;BME280;5858;43.076;25.626;2022-08-16T08:03:13;98685.22;;;32.26;38.22
11605;BME280;5858;43.076;25.626;2022-08-16T08:05:40;98654.88;;;32.09;37.51
11605;BME280;5858;43.076;25.626;2022-08-16T08:08:08;98640.28;;;31.67;38.30
11605;BME280;5858;43.076;25.626;2022-08-16T08:10:35;98640.22;;;31.54;37.98
11605;BME280;5858;43.076;25.626;2022-08-16T08:13:02;98601.81;;;31.11;39.32
11605;BME280;5858;43.076;25.626;2022-08-16T08:15:29;98651.75;;;31.56;38.80
11605;BME280;5858;43.076;25.626;2022-08-16T08:18:00;98637.81;;;31.74;38.94
11605;BME280;5858;43.076;25.626;2022-08-16T08:20:29;98520.91;;;31.02;38.32
11605;BME280;5858;43.076;25.626;2022-08-16T08:23:00;98643.00;;;31.75;37.74
11605;BME280;5858;43.076;25.626;2022-08-16T08:25:29;98612.91;;;31.74;38.77
11605;BME280;5858;43.076;25.626;2022-08-16T08:27:56;98665.94;;;32.30;37.85
11605;BME280;5858;43.076;25.626;2022-08-16T08:30:24;98593.25;;;31.87;37.70
11605;BME280;5858;43.076;25.626;2022-08-16T08:32:51;98666.09;;;31.79;38.79
11605;BME280;5858;43.076;25.626;2022-08-16T08:35:22;98678.97;;;31.75;38.22
11605;BME280;5858;43.076;25.626;2022-08-16T08:37:49;98614.66;;;31.37;38.34
11605;BME280;5858;43.076;25.626;2022-08-16T08:40:17;98613.31;;;31.43;39.50
11605;BME280;5858;43.076;25.626;2022-08-16T08:42:48;98634.41;;;31.47;39.52
11605;BME280;5858;43.076;25.626;2022-08-16T08:45:17;98535.13;;;30.92;39.58
11605;BME280;5858;43.076;25.626;2022-08-16T08:47:44;98573.66;;;31.39;39.02
11605;BME280;5858;43.076;25.626;2022-08-16T08:50:12;98657.75;;;32.00;38.22
11605;BME280;5858;43.076;25.626;2022-08-16T08:52:42;98660.16;;;32.02;38.87
11605;BME280;5858;43.076;25.626;2022-08-16T08:55:11;98621.59;;;31.84;38.21
11605;BME280;5858;43.076;25.626;2022-08-16T08:57:39;98652.69;;;32.35;37.63
11605;BME280;5858;43.076;25.626;2022-08-16T09:00:16;98580.34;;;32.04;37.40
11605;BME280;5858;43.076;25.626;2022-08-16T09:02:44;98583.75;;;32.21;36.94
11605;BME280;5858;43.076;25.626;2022-08-16T09:05:12;98632.16;;;32.61;36.36
11605;BME280;5858;43.076;25.626;2022-08-16T09:07:40;98647.34;;;32.88;36.25
11605;BME280;5858;43.076;25.626;2022-08-16T09:10:07;98665.44;;;33.34;35.73
11605;BME280;5858;43.076;25.626;2022-08-16T09:12:35;98658.22;;;33.57;35.15
11605;BME280;5858;43.076;25.626;2022-08-16T09:15:02;98646.19;;;33.65;34.23
11605;BME280;5858;43.076;25.626;2022-08-16T09:17:31;98672.28;;;33.76;35.01
11605;BME280;5858;43.076;25.626;2022-08-16T09:19:58;98631.91;;;33.39;35.28
11605;BME280;5858;43.076;25.626;2022-08-16T09:22:26;98612.97;;;33.29;35.03
11605;BME280;5858;43.076;25.626;2022-08-16T09:24:53;98617.28;;;33.14;33.81
11605;BME280;5858;43.076;25.626;2022-08-16T09:27:21;98662.50;;;33.55;34.72
11605;BME280;5858;43.076;25.626;2022-08-16T09:29:48;98617.50;;;33.21;34.25
11605;BME280;5858;43.076;25.626;2022-08-16T09:32:15;98666.53;;;33.69;33.48
11605;BME280;5858;43.076;25.626;2022-08-16T09:34:44;98573.94;;;33.22;34.61
11605;BME280;5858;43.076;25.626;2022-08-16T09:37:11;98654.69;;;33.85;33.13
11605;BME280;5858;43.076;25.626;2022-08-16T09:39:40;98635.59;;;33.43;33.91
11605;BME280;5858;43.076;25.626;2022-08-16T09:42:07;98598.63;;;33.39;33.64
11605;BME280;5858;43.076;25.626;2022-08-16T09:44:34;98640.47;;;33.86;32.87
11605;BME280;5858;43.076;25.626;2022-08-16T09:47:03;98599.28;;;33.60;32.57
11605;BME280;5858;43.076;25.626;2022-08-16T09:49:29;98586.41;;;33.68;32.90
11605;BME280;5858;43.076;25.626;2022-08-16T09:51:58;98599.09;;;33.29;33.68
11605;BME280;5858;43.076;25.626;2022-08-16T09:54:26;98602.13;;;33.24;33.84
11605;BME280;5858;43.076;25.626;2022-08-16T09:56:54;98613.81;;;33.17;33.72
11605;BME280;5858;43.076;25.626;2022-08-16T09:59:24;98593.63;;;32.92;34.39
11605;BME280;5858;43.076;25.626;2022-08-16T10:01:52;98596.88;;;32.82;34.33
11605;BME280;5858;43.076;25.626;2022-08-16T10:04:20;98595.69;;;32.71;35.13
11605;BME280;5858;43.076;25.626;2022-08-16T10:06:47;98603.75;;;32.51;34.74
11605;BME280;5858;43.076;25.626;2022-08-16T10:09:15;98657.25;;;32.76;35.33
11605;BME280;5858;43.076;25.626;2022-08-16T10:11:42;98658.06;;;32.89;36.50
11605;BME280;5858;43.076;25.626;2022-08-16T10:14:27;98646.75;;;32.94;35.35
11605;BME280;5858;43.076;25.626;2022-08-16T10:16:56;98637.03;;;33.00;34.54
11605;BME280;5858;43.076;25.626;2022-08-16T10:19:24;98649.84;;;33.17;36.00
11605;BME280;5858;43.076;25.626;2022-08-16T10:21:53;98648.66;;;33.42;34.70
11605;BME280;5858;43.076;25.626;2022-08-16T10:24:22;98637.22;;;33.44;34.15
11605;BME280;5858;43.076;25.626;2022-08-16T10:26:49;98564.78;;;33.33;33.61
11605;BME280;5858;43.076;25.626;2022-08-16T10:29:20;98595.44;;;33.65;33.43
11605;BME280;5858;43.076;25.626;2022-08-16T10:31:47;98660.34;;;34.16;32.97
11605;BME280;5858;43.076;25.626;2022-08-16T10:34:14;98579.84;;;33.88;33.20
11605;BME280;5858;43.076;25.626;2022-08-16T10:36:41;98568.75;;;34.04;33.49
11605;BME280;5858;43.076;25.626;2022-08-16T10:39:08;98618.09;;;34.54;32.24
11605;BME280;5858;43.076;25.626;2022-08-16T10:41:36;98641.66;;;34.76;31.75
11605;BME280;5858;43.076;25.626;2022-08-16T10:44:03;98628.66;;;34.49;31.20
11605;BME280;5858;43.076;25.626;2022-08-16T10:46:31;98660.97;;;34.53;31.75
11605;BME280;5858;43.076;25.626;2022-08-16T10:49:00;98651.81;;;34.84;32.18
11605;BME280;5858;43.076;25.626;2022-08-16T10:51:27;98664.88;;;35.15;32.11
11605;BME280;5858;43.076;25.626;2022-08-16T10:53:53;98630.84;;;35.22;31.13
11605;BME280;5858;43.076;25.626;2022-08-16T10:56:21;98609.34;;;35.38;29.93
11605;BME280;5858;43.076;25.626;2022-08-16T10:58:50;98620.50;;;35.77;29.50
11605;BME280;5858;43.076;25.626;2022-08-16T11:01:17;98524.16;;;34.95;28.87
11605;BME280;5858;43.076;25.626;2022-08-16T11:03:44;98625.50;;;34.82;29.97
11605;BME280;5858;43.076;25.626;2022-08-16T11:06:11;98623.38;;;34.91;30.40
11605;BME280;5858;43.076;25.626;2022-08-16T11:08:38;98649.63;;;35.09;31.27
11605;BME280;5858;43.076;25.626;2022-08-16T11:11:06;98633.03;;;34.97;31.57
11605;BME280;5858;43.076;25.626;2022-08-16T11:13:33;98635.56;;;34.86;30.94
11605;BME280;5858;43.076;25.626;2022-08-16T11:16:02;98634.78;;;34.86;31.84
11605;BME280;5858;43.076;25.626;2022-08-16T11:18:29;98651.81;;;34.68;31.05
11605;BME280;5858;43.076;25.626;2022-08-16T11:20:57;98630.38;;;34.53;30.31
11605;BME280;5858;43.076;25.626;2022-08-16T11:23:26;98633.78;;;34.62;29.67
11605;BME280;5858;43.076;25.626;2022-08-16T11:25:54;98618.97;;;34.74;29.32
11605;BME280;5858;43.076;25.626;2022-08-16T11:28:22;98626.88;;;34.56;29.63
11605;BME280;5858;43.076;25.626;2022-08-16T11:30:49;98616.91;;;34.39;29.37
11605;BME280;5858;43.076;25.626;2022-08-16T11:33:17;98625.13;;;34.20;30.07
11605;BME280;5858;43.076;25.626;2022-08-16T11:35:45;98637.88;;;34.37;29.90
11605;BME280;5858;43.076;25.626;2022-08-16T11:38:14;98529.09;;;33.60;30.17
11605;BME280;5858;43.076;25.626;2022-08-16T11:40:46;98608.31;;;33.85;29.87
11605;BME280;5858;43.076;25.626;2022-08-16T11:43:16;98554.59;;;33.37;30.26
11605;BME280;5858;43.076;25.626;2022-08-16T11:45:44;98620.13;;;33.42;30.72
11605;BME280;5858;43.076;25.626;2022-08-16T11:48:15;98575.38;;;32.91;31.11
11605;BME280;5858;43.076;25.626;2022-08-16T11:50:45;98612.34;;;33.47;30.71
11605;BME280;5858;43.076;25.626;2022-08-16T11:53:12;98612.44;;;33.63;30.04
11605;BME280;5858;43.076;25.626;2022-08-16T11:55:41;98582.03;;;33.55;29.96
11605;BME280;5858;43.076;25.626;2022-08-16T11:58:08;98570.03;;;33.51;29.92
11605;BME280;5858;43.076;25.626;2022-08-16T12:00:36;98572.16;;;33.29;29.57
11605;BME280;5858;43.076;25.626;2022-08-16T12:03:03;98567.78;;;33.28;30.75
11605;BME280;5858;43.076;25.626;2022-08-16T12:05:31;98524.88;;;32.98;30.51
11605;BME280;5858;43.076;25.626;2022-08-16T12:07:59;98589.75;;;33.33;30.50
11605;BME280;5858;43.076;25.626;2022-08-16T12:10:30;98473.59;;;32.39;30.61
11605;BME280;5858;43.076;25.626;2022-08-16T12:12:57;98501.25;;;32.51;31.00
11605;BME280;5858;43.076;25.626;2022-08-16T12:15:24;98572.59;;;32.91;30.98
11605;BME280;5858;43.076;25.626;2022-08-16T12:17:52;98540.81;;;33.13;30.64
11605;BME280;5858;43.076;25.626;2022-08-16T12:20:23;98586.94;;;33.73;30.35
11605;BME280;5858;43.076;25.626;2022-08-16T12:22:51;98557.72;;;33.92;29.87
11605;BME280;5858;43.076;25.626;2022-08-16T12:25:22;98583.72;;;34.31;29.64
11605;BME280;5858;43.076;25.626;2022-08-16T12:27:50;98580.25;;;34.18;28.83
11605;BME280;5858;43.076;25.626;2022-08-16T12:30:19;98494.97;;;33.59;28.90
11605;BME280;5858;43.076;25.626;2022-08-16T12:32:47;98487.75;;;33.70;28.16
11605;BME280;5858;43.076;25.626;2022-08-16T12:35:16;98539.06;;;33.76;28.58
11605;BME280;5858;43.076;25.626;2022-08-16T12:37:44;98510.88;;;33.46;28.60
11605;BME280;5858;43.076;25.626;2022-08-16T12:40:15;98567.03;;;33.84;28.99
11605;BME280;5858;43.076;25.626;2022-08-16T12:42:49;98435.13;;;33.30;28.66
11605;BME280;5858;43.076;25.626;2022-08-16T12:45:20;98561.44;;;34.43;28.72
11605;BME280;5858;43.076;25.626;2022-08-16T12:47:47;98534.44;;;34.28;27.98
11605;BME280;5858;43.076;25.626;2022-08-16T12:50:32;98547.53;;;34.27;28.19
11605;BME280;5858;43.076;25.626;2022-08-16T12:53:01;98497.09;;;34.25;28.10
11605;BME280;5858;43.076;25.626;2022-08-16T12:55:29;98487.22;;;34.59;28.08
11605;BME280;5858;43.076;25.626;2022-08-16T12:57:58;98443.63;;;34.63;26.81
11605;BME280;5858;43.076;25.626;2022-08-16T13:00:32;98560.69;;;35.48;26.26
11605;BME280;5858;43.076;25.626;2022-08-16T13:03:02;98532.66;;;35.21;25.57
11605;BME280;5858;43.076;25.626;2022-08-16T13:05:30;98502.09;;;35.02;25.76
11605;BME280;5858;43.076;25.626;2022-08-16T13:08:05;98493.75;;;35.02;25.12
11605;BME280;5858;43.076;25.626;2022-08-16T13:10:32;98452.81;;;34.83;26.27
11605;BME280;5858;43.076;25.626;2022-08-16T13:13:01;98545.13;;;35.66;25.67